sensor_id;sensor_type;location;lat;lon;timestamp;temperature;humidity
25440;DHT22;13365;52.208;5.488;2023-09-07T00:01:08;24.60;85.00
25440;DHT22;13365;52.208;5.488;2023-09-07T00:03:33;24.50;85.80
25440;DHT22;13365;52.208;5.488;2023-09-07T00:05:59;24.50;84.80
25440;DHT22;13365;52.208;5.488;2023-09-07T00:08:24;24.40;84.60
25440;DHT22;13365;52.208;5.488;2023-09-07T00:10:51;24.40;84.80
25440;DHT22;13365;52.208;5.488;2023-09-07T00:13:17;24.40;85.70
25440;DHT22;13365;52.208;5.488;2023-09-07T00:15:42;24.30;84.80
25440;DHT22;13365;52.208;5.488;2023-09-07T00:18:08;24.20;84.70
25440;DHT22;13365;52.208;5.488;2023-09-07T00:20:33;24.20;84.60
25440;DHT22;13365;52.208;5.488;2023-09-07T00:23:00;24.20;84.70
25440;DHT22;13365;52.208;5.488;2023-09-07T00:25:26;24.20;84.60
25440;DHT22;13365;52.208;5.488;2023-09-07T00:27:52;24.20;84.50
25440;DHT22;13365;52.208;5.488;2023-09-07T00:30:18;24.10;84.70
25440;DHT22;13365;52.208;5.488;2023-09-07T00:32:44;24.10;84.80
25440;DHT22;13365;52.208;5.488;2023-09-07T00:35:10;24.00;84.80
25440;DHT22;13365;52.208;5.488;2023-09-07T00:37:36;23.90;84.90
25440;DHT22;13365;52.208;5.488;2023-09-07T00:40:02;23.90;85.10
25440;DHT22;13365;52.208;5.488;2023-09-07T00:42:29;23.90;85.00
25440;DHT22;13365;52.208;5.488;2023-09-07T00:44:54;23.90;85.20
25440;DHT22;13365;52.208;5.488;2023-09-07T00:47:20;23.80;85.20
25440;DHT22;13365;52.208;5.488;2023-09-07T00:49:46;23.90;85.40
25440;DHT22;13365;52.208;5.488;2023-09-07T00:52:12;23.80;85.40
25440;DHT22;13365;52.208;5.488;2023-09-07T00:54:38;23.80;85.40
25440;DHT22;13365;52.208;5.488;2023-09-07T00:57:06;23.80;85.30
25440;DHT22;13365;52.208;5.488;2023-09-07T00:59:33;23.80;85.20
25440;DHT22;13365;52.208;5.488;2023-09-07T01:01:58;23.80;85.20
25440;DHT22;13365;52.208;5.488;2023-09-07T01:04:24;23.70;85.00
25440;DHT22;13365;52.208;5.488;2023-09-07T01:06:56;23.60;85.00
25440;DHT22;13365;52.208;5.488;2023-09-07T01:09:24;23.60;85.40
25440;DHT22;13365;52.208;5.488;2023-09-07T01:11:52;23.60;85.20
25440;DHT22;13365;52.208;5.488;2023-09-07T01:14:18;23.50;85.40
25440;DHT22;13365;52.208;5.488;2023-09-07T01:16:44;23.50;85.70
25440;DHT22;13365;52.208;5.488;2023-09-07T01:19:09;23.50;86.20
25440;DHT22;13365;52.208;5.488;2023-09-07T01:21:37;23.60;86.00
25440;DHT22;13365;52.208;5.488;2023-09-07T01:24:06;23.60;86.00
25440;DHT22;13365;52.208;5.488;2023-09-07T01:26:33;23.70;86.50
25440;DHT22;13365;52.208;5.488;2023-09-07T01:28:58;23.60;86.20
25440;DHT22;13365;52.208;5.488;2023-09-07T01:31:24;23.70;86.20
25440;DHT22;13365;52.208;5.488;2023-09-07T01:33:49;23.70;86.20
25440;DHT22;13365;52.208;5.488;2023-09-07T01:36:15;23.60;85.90
25440;DHT22;13365;52.208;5.488;2023-09-07T01:38:41;23.70;85.50
25440;DHT22;13365;52.208;5.488;2023-09-07T01:41:06;23.70;85.50
25440;DHT22;13365;52.208;5.488;2023-09-07T01:43:33;23.70;85.80
25440;DHT22;13365;52.208;5.488;2023-09-07T01:45:58;23.70;85.50
25440;DHT22;13365;52.208;5.488;2023-09-07T01:48:24;23.70;85.10
25440;DHT22;13365;52.208;5.488;2023-09-07T01:50:54;23.60;84.70
25440;DHT22;13365;52.208;5.488;2023-09-07T01:53:20;23.50;84.70
25440;DHT22;13365;52.208;5.488;2023-09-07T01:55:45;23.40;84.80
25440;DHT22;13365;52.208;5.488;2023-09-07T01:58:11;23.50;84.80
25440;DHT22;13365;52.208;5.488;2023-09-07T02:00:39;23.50;84.60
25440;DHT22;13365;52.208;5.488;2023-09-07T02:03:05;23.50;84.40
25440;DHT22;13365;52.208;5.488;2023-09-07T02:05:30;23.50;85.10
25440;DHT22;13365;52.208;5.488;2023-09-07T02:07:58;23.40;85.40
25440;DHT22;13365;52.208;5.488;2023-09-07T02:10:23;23.40;86.20
25440;DHT22;13365;52.208;5.488;2023-09-07T02:12:49;23.50;86.60
25440;DHT22;13365;52.208;5.488;2023-09-07T02:15:14;23.50;86.60
25440;DHT22;13365;52.208;5.488;2023-09-07T02:17:40;23.50;86.40
25440;DHT22;13365;52.208;5.488;2023-09-07T02:20:06;23.60;87.20
25440;DHT22;13365;52.208;5.488;2023-09-07T02:22:36;23.60;85.90
25440;DHT22;13365;52.208;5.488;2023-09-07T02:25:01;23.50;86.00
25440;DHT22;13365;52.208;5.488;2023-09-07T02:27:28;23.70;86.00
25440;DHT22;13365;52.208;5.488;2023-09-07T02:29:53;23.70;85.70
25440;DHT22;13365;52.208;5.488;2023-09-07T02:32:19;23.70;85.80
25440;DHT22;13365;52.208;5.488;2023-09-07T02:34:44;23.80;86.10
25440;DHT22;13365;52.208;5.488;2023-09-07T02:37:10;23.80;85.90
25440;DHT22;13365;52.208;5.488;2023-09-07T02:39:35;23.80;86.10
25440;DHT22;13365;52.208;5.488;2023-09-07T02:42:01;23.80;86.20
25440;DHT22;13365;52.208;5.488;2023-09-07T02:44:26;23.90;86.40
25440;DHT22;13365;52.208;5.488;2023-09-07T02:46:52;23.80;86.30
25440;DHT22;13365;52.208;5.488;2023-09-07T02:49:17;24.00;86.30
25440;DHT22;13365;52.208;5.488;2023-09-07T02:51:43;24.00;86.10
25440;DHT22;13365;52.208;5.488;2023-09-07T02:54:09;24.00;85.90
25440;DHT22;13365;52.208;5.488;2023-09-07T02:56:35;23.90;85.70
25440;DHT22;13365;52.208;5.488;2023-09-07T02:59:00;23.90;85.70
25440;DHT22;13365;52.208;5.488;2023-09-07T03:01:25;23.90;85.50
25440;DHT22;13365;52.208;5.488;2023-09-07T03:03:51;23.80;85.40
25440;DHT22;13365;52.208;5.488;2023-09-07T03:06:16;23.80;85.40
25440;DHT22;13365;52.208;5.488;2023-09-07T03:08:43;23.80;85.30
25440;DHT22;13365;52.208;5.488;2023-09-07T03:11:09;23.80;85.40
25440;DHT22;13365;52.208;5.488;2023-09-07T03:13:35;23.80;85.20
25440;DHT22;13365;52.208;5.488;2023-09-07T03:16:01;23.70;85.10
25440;DHT22;13365;52.208;5.488;2023-09-07T03:18:27;23.70;85.20
25440;DHT22;13365;52.208;5.488;2023-09-07T03:20:54;23.60;85.20
25440;DHT22;13365;52.208;5.488;2023-09-07T03:23:19;23.50;85.50
25440;DHT22;13365;52.208;5.488;2023-09-07T03:25:45;23.60;85.80
25440;DHT22;13365;52.208;5.488;2023-09-07T03:28:10;23.60;86.20
25440;DHT22;13365;52.208;5.488;2023-09-07T03:30:36;23.50;86.30
25440;DHT22;13365;52.208;5.488;2023-09-07T03:33:02;23.60;86.20
25440;DHT22;13365;52.208;5.488;2023-09-07T03:35:28;23.60;86.00
25440;DHT22;13365;52.208;5.488;2023-09-07T03:37:54;23.60;85.90
25440;DHT22;13365;52.208;5.488;2023-09-07T03:40:20;23.60;85.70
25440;DHT22;13365;52.208;5.488;2023-09-07T03:42:45;23.50;85.60
25440;DHT22;13365;52.208;5.488;2023-09-07T03:45:12;23.50;85.40
25440;DHT22;13365;52.208;5.488;2023-09-07T03:47:38;23.50;85.90
25440;DHT22;13365;52.208;5.488;2023-09-07T03:50:04;23.60;86.50
25440;DHT22;13365;52.208;5.488;2023-09-07T03:52:31;23.60;86.00
25440;DHT22;13365;52.208;5.488;2023-09-07T03:54:57;23.50;85.60
25440;DHT22;13365;52.208;5.488;2023-09-07T03:57:23;23.40;85.60
25440;DHT22;13365;52.208;5.488;2023-09-07T03:59:50;23.30;85.40
25440;DHT22;13365;52.208;5.488;2023-09-07T04:02:15;23.20;85.40
25440;DHT22;13365;52.208;5.488;2023-09-07T04:04:43;23.10;85.30
25440;DHT22;13365;52.208;5.488;2023-09-07T04:07:08;23.10;85.30
25440;DHT22;13365;52.208;5.488;2023-09-07T04:09:34;23.00;85.00
25440;DHT22;13365;52.208;5.488;2023-09-07T04:12:00;22.90;84.90
25440;DHT22;13365;52.208;5.488;2023-09-07T04:14:26;22.80;84.80
25440;DHT22;13365;52.208;5.488;2023-09-07T04:16:51;22.70;84.90
25440;DHT22;13365;52.208;5.488;2023-09-07T04:19:17;22.70;85.20
25440;DHT22;13365;52.208;5.488;2023-09-07T04:21:42;22.80;86.00
25440;DHT22;13365;52.208;5.488;2023-09-07T04:24:08;22.70;85.90
25440;DHT22;13365;52.208;5.488;2023-09-07T04:26:36;22.60;85.80
25440;DHT22;13365;52.208;5.488;2023-09-07T04:29:03;22.60;86.00
25440;DHT22;13365;52.208;5.488;2023-09-07T04:31:28;22.60;85.90
25440;DHT22;13365;52.208;5.488;2023-09-07T04:33:54;22.50;85.90
25440;DHT22;13365;52.208;5.488;2023-09-07T04:36:19;22.50;86.10
25440;DHT22;13365;52.208;5.488;2023-09-07T04:38:45;22.40;86.30
25440;DHT22;13365;52.208;5.488;2023-09-07T04:41:14;22.40;86.20
25440;DHT22;13365;52.208;5.488;2023-09-07T04:43:41;22.40;86.10
25440;DHT22;13365;52.208;5.488;2023-09-07T04:46:09;22.50;86.30
25440;DHT22;13365;52.208;5.488;2023-09-07T04:48:35;22.40;86.20
25440;DHT22;13365;52.208;5.488;2023-09-07T04:51:03;22.40;86.10
25440;DHT22;13365;52.208;5.488;2023-09-07T04:53:30;22.40;86.40
25440;DHT22;13365;52.208;5.488;2023-09-07T04:55:57;22.40;87.00
25440;DHT22;13365;52.208;5.488;2023-09-07T04:58:22;22.40;86.20
25440;DHT22;13365;52.208;5.488;2023-09-07T05:00:48;22.40;86.20
25440;DHT22;13365;52.208;5.488;2023-09-07T05:03:13;22.40;86.00
25440;DHT22;13365;52.208;5.488;2023-09-07T05:05:39;22.30;85.90
25440;DHT22;13365;52.208;5.488;2023-09-07T05:08:05;22.30;85.80
25440;DHT22;13365;52.208;5.488;2023-09-07T05:10:34;22.30;85.80
25440;DHT22;13365;52.208;5.488;2023-09-07T05:12:59;22.30;85.90
25440;DHT22;13365;52.208;5.488;2023-09-07T05:15:25;22.30;85.90
25440;DHT22;13365;52.208;5.488;2023-09-07T05:17:54;22.20;86.10
25440;DHT22;13365;52.208;5.488;2023-09-07T05:20:19;22.20;86.00
25440;DHT22;13365;52.208;5.488;2023-09-07T05:22:45;22.20;86.10
25440;DHT22;13365;52.208;5.488;2023-09-07T05:25:11;22.20;86.20
25440;DHT22;13365;52.208;5.488;2023-09-07T05:27:37;22.30;86.50
25440;DHT22;13365;52.208;5.488;2023-09-07T05:30:03;22.30;86.70
25440;DHT22;13365;52.208;5.488;2023-09-07T05:32:29;22.20;86.70
25440;DHT22;13365;52.208;5.488;2023-09-07T05:34:54;22.30;86.80
25440;DHT22;13365;52.208;5.488;2023-09-07T05:37:20;22.20;86.80
25440;DHT22;13365;52.208;5.488;2023-09-07T05:39:45;22.20;86.80
25440;DHT22;13365;52.208;5.488;2023-09-07T05:42:11;22.20;87.00
25440;DHT22;13365;52.208;5.488;2023-09-07T05:44:37;22.20;87.00
25440;DHT22;13365;52.208;5.488;2023-09-07T05:47:03;22.30;87.20
25440;DHT22;13365;52.208;5.488;2023-09-07T05:49:29;22.40;87.60
25440;DHT22;13365;52.208;5.488;2023-09-07T05:51:55;22.40;87.70
25440;DHT22;13365;52.208;5.488;2023-09-07T05:54:20;22.50;87.80
25440;DHT22;13365;52.208;5.488;2023-09-07T05:56:46;22.60;88.10
25440;DHT22;13365;52.208;5.488;2023-09-07T05:59:11;22.60;88.30
25440;DHT22;13365;52.208;5.488;2023-09-07T06:01:39;22.70;88.50
25440;DHT22;13365;52.208;5.488;2023-09-07T06:04:04;22.70;88.50
25440;DHT22;13365;52.208;5.488;2023-09-07T06:06:30;22.90;88.80
25440;DHT22;13365;52.208;5.488;2023-09-07T06:08:56;22.90;88.70
25440;DHT22;13365;52.208;5.488;2023-09-07T06:11:21;23.00;88.90
25440;DHT22;13365;52.208;5.488;2023-09-07T06:13:47;23.20;88.90
25440;DHT22;13365;52.208;5.488;2023-09-07T06:16:12;23.20;89.10
25440;DHT22;13365;52.208;5.488;2023-09-07T06:18:38;23.30;89.20
25440;DHT22;13365;52.208;5.488;2023-09-07T06:21:04;23.50;89.30
25440;DHT22;13365;52.208;5.488;2023-09-07T06:23:31;23.70;89.60
25440;DHT22;13365;52.208;5.488;2023-09-07T06:25:56;23.70;89.40
25440;DHT22;13365;52.208;5.488;2023-09-07T06:28:22;23.80;89.30
25440;DHT22;13365;52.208;5.488;2023-09-07T06:30:48;23.90;89.10
25440;DHT22;13365;52.208;5.488;2023-09-07T06:33:13;24.00;88.80
25440;DHT22;13365;52.208;5.488;2023-09-07T06:35:39;24.20;88.30
25440;DHT22;13365;52.208;5.488;2023-09-07T06:38:04;24.20;88.50
25440;DHT22;13365;52.208;5.488;2023-09-07T06:40:30;24.30;88.50
25440;DHT22;13365;52.208;5.488;2023-09-07T06:42:56;24.40;88.40
25440;DHT22;13365;52.208;5.488;2023-09-07T06:45:22;24.60;88.20
25440;DHT22;13365;52.208;5.488;2023-09-07T06:47:49;24.70;87.90
25440;DHT22;13365;52.208;5.488;2023-09-07T06:50:15;24.90;87.30
25440;DHT22;13365;52.208;5.488;2023-09-07T06:52:41;24.90;87.10
25440;DHT22;13365;52.208;5.488;2023-09-07T06:55:07;25.00;87.20
25440;DHT22;13365;52.208;5.488;2023-09-07T06:57:32;25.20;86.90
25440;DHT22;13365;52.208;5.488;2023-09-07T06:59:59;25.30;85.90
25440;DHT22;13365;52.208;5.488;2023-09-07T07:02:25;25.30;86.30
25440;DHT22;13365;52.208;5.488;2023-09-07T07:04:51;25.40;86.70
25440;DHT22;13365;52.208;5.488;2023-09-07T07:07:17;25.50;86.90
25440;DHT22;13365;52.208;5.488;2023-09-07T07:09:43;25.70;86.30
25440;DHT22;13365;52.208;5.488;2023-09-07T07:12:08;25.70;85.30
25440;DHT22;13365;52.208;5.488;2023-09-07T07:14:34;25.90;85.90
25440;DHT22;13365;52.208;5.488;2023-09-07T07:16:59;26.00;85.40
25440;DHT22;13365;52.208;5.488;2023-09-07T07:19:27;26.10;85.70
25440;DHT22;13365;52.208;5.488;2023-09-07T07:21:52;26.30;85.70
25440;DHT22;13365;52.208;5.488;2023-09-07T07:24:19;26.40;85.40
25440;DHT22;13365;52.208;5.488;2023-09-07T07:26:45;26.60;85.40
25440;DHT22;13365;52.208;5.488;2023-09-07T07:29:11;26.90;83.30
25440;DHT22;13365;52.208;5.488;2023-09-07T07:31:37;26.90;83.80
25440;DHT22;13365;52.208;5.488;2023-09-07T07:34:03;27.00;83.60
25440;DHT22;13365;52.208;5.488;2023-09-07T07:36:29;27.20;83.40
25440;DHT22;13365;52.208;5.488;2023-09-07T07:38:54;27.40;83.50
25440;DHT22;13365;52.208;5.488;2023-09-07T07:41:20;27.50;83.00
25440;DHT22;13365;52.208;5.488;2023-09-07T07:43:45;27.80;83.00
25440;DHT22;13365;52.208;5.488;2023-09-07T07:46:11;28.10;81.90
25440;DHT22;13365;52.208;5.488;2023-09-07T07:48:36;28.20;81.70
25440;DHT22;13365;52.208;5.488;2023-09-07T07:51:03;28.40;80.40
25440;DHT22;13365;52.208;5.488;2023-09-07T07:53:32;28.60;80.30
25440;DHT22;13365;52.208;5.488;2023-09-07T07:55:57;28.80;79.90
25440;DHT22;13365;52.208;5.488;2023-09-07T07:58:23;29.00;80.40
25440;DHT22;13365;52.208;5.488;2023-09-07T08:00:48;29.10;76.90
25440;DHT22;13365;52.208;5.488;2023-09-07T08:03:15;29.30;77.20
25440;DHT22;13365;52.208;5.488;2023-09-07T08:05:40;29.40;78.60
25440;DHT22;13365;52.208;5.488;2023-09-07T08:08:06;29.60;77.80
25440;DHT22;13365;52.208;5.488;2023-09-07T08:10:36;29.60;78.50
25440;DHT22;13365;52.208;5.488;2023-09-07T08:13:03;29.90;79.00
25440;DHT22;13365;52.208;5.488;2023-09-07T08:15:29;30.10;76.70
25440;DHT22;13365;52.208;5.488;2023-09-07T08:17:55;30.20;78.50
25440;DHT22;13365;52.208;5.488;2023-09-07T08:20:21;30.50;76.10
25440;DHT22;13365;52.208;5.488;2023-09-07T08:22:47;30.60;75.20
25440;DHT22;13365;52.208;5.488;2023-09-07T08:25:13;30.60;74.90
25440;DHT22;13365;52.208;5.488;2023-09-07T08:27:42;30.70;75.60
25440;DHT22;13365;52.208;5.488;2023-09-07T08:30:13;30.80;75.30
25440;DHT22;13365;52.208;5.488;2023-09-07T08:32:41;31.10;77.20
25440;DHT22;13365;52.208;5.488;2023-09-07T08:35:08;31.40;75.20
25440;DHT22;13365;52.208;5.488;2023-09-07T08:37:34;31.60;73.40
25440;DHT22;13365;52.208;5.488;2023-09-07T08:40:00;31.80;75.40
25440;DHT22;13365;52.208;5.488;2023-09-07T08:42:25;32.10;75.10
25440;DHT22;13365;52.208;5.488;2023-09-07T08:44:53;32.40;70.20
25440;DHT22;13365;52.208;5.488;2023-09-07T08:47:20;32.30;71.90
25440;DHT22;13365;52.208;5.488;2023-09-07T08:49:46;32.70;71.20
25440;DHT22;13365;52.208;5.488;2023-09-07T08:52:14;32.90;71.20
25440;DHT22;13365;52.208;5.488;2023-09-07T08:54:41;33.20;71.90
25440;DHT22;13365;52.208;5.488;2023-09-07T08:57:08;33.30;72.00
25440;DHT22;13365;52.208;5.488;2023-09-07T08:59:36;33.50;69.30
25440;DHT22;13365;52.208;5.488;2023-09-07T09:02:01;33.90;69.70
25440;DHT22;13365;52.208;5.488;2023-09-07T09:04:29;34.00;68.50
25440;DHT22;13365;52.208;5.488;2023-09-07T09:06:55;34.20;67.70
25440;DHT22;13365;52.208;5.488;2023-09-07T09:09:25;34.30;66.50
25440;DHT22;13365;52.208;5.488;2023-09-07T09:11:51;34.20;67.30
25440;DHT22;13365;52.208;5.488;2023-09-07T09:14:17;34.30;66.70
25440;DHT22;13365;52.208;5.488;2023-09-07T09:16:50;34.40;66.30
25440;DHT22;13365;52.208;5.488;2023-09-07T09:19:16;34.40;67.30
25440;DHT22;13365;52.208;5.488;2023-09-07T09:21:44;34.40;66.70
25440;DHT22;13365;52.208;5.488;2023-09-07T09:24:10;34.60;66.70
25440;DHT22;13365;52.208;5.488;2023-09-07T09:26:39;34.60;69.50
25440;DHT22;13365;52.208;5.488;2023-09-07T09:29:04;34.80;65.70
25440;DHT22;13365;52.208;5.488;2023-09-07T09:31:30;34.90;67.10
25440;DHT22;13365;52.208;5.488;2023-09-07T09:33:56;34.90;64.30
25440;DHT22;13365;52.208;5.488;2023-09-07T09:36:22;34.80;65.20
25440;DHT22;13365;52.208;5.488;2023-09-07T09:38:49;34.70;64.60
25440;DHT22;13365;52.208;5.488;2023-09-07T09:41:16;34.60;64.20
25440;DHT22;13365;52.208;5.488;2023-09-07T09:43:42;34.50;65.90
25440;DHT22;13365;52.208;5.488;2023-09-07T09:46:10;34.60;65.20
25440;DHT22;13365;52.208;5.488;2023-09-07T09:48:37;34.70;64.40
25440;DHT22;13365;52.208;5.488;2023-09-07T09:51:03;34.60;64.60
25440;DHT22;13365;52.208;5.488;2023-09-07T09:53:29;34.60;66.10
25440;DHT22;13365;52.208;5.488;2023-09-07T09:55:55;34.80;65.90
25440;DHT22;13365;52.208;5.488;2023-09-07T09:58:21;34.80;64.80
25440;DHT22;13365;52.208;5.488;2023-09-07T10:00:53;34.80;61.80
25440;DHT22;13365;52.208;5.488;2023-09-07T10:05:48;35.00;64.20
25440;DHT22;13365;52.208;5.488;2023-09-07T10:08:16;35.20;63.80
25440;DHT22;13365;52.208;5.488;2023-09-07T10:10:43;35.20;63.90
25440;DHT22;13365;52.208;5.488;2023-09-07T10:13:14;35.30;63.50
25440;DHT22;13365;52.208;5.488;2023-09-07T10:15:39;35.30;63.20
25440;DHT22;13365;52.208;5.488;2023-09-07T10:18:17;35.30;62.00
25440;DHT22;13365;52.208;5.488;2023-09-07T10:20:55;35.20;62.00
25440;DHT22;13365;52.208;5.488;2023-09-07T10:23:22;35.20;61.70
25440;DHT22;13365;52.208;5.488;2023-09-07T10:25:53;35.30;60.40
25440;DHT22;13365;52.208;5.488;2023-09-07T10:28:25;35.00;59.60
25440;DHT22;13365;52.208;5.488;2023-09-07T10:31:04;34.90;61.10
25440;DHT22;13365;52.208;5.488;2023-09-07T10:33:31;35.00;63.60
25440;DHT22;13365;52.208;5.488;2023-09-07T10:35:58;35.20;62.00
25440;DHT22;13365;52.208;5.488;2023-09-07T10:38:24;35.30;63.50
25440;DHT22;13365;52.208;5.488;2023-09-07T10:40:55;35.50;63.20
25440;DHT22;13365;52.208;5.488;2023-09-07T10:43:26;35.80;62.00
25440;DHT22;13365;52.208;5.488;2023-09-07T10:45:54;36.00;59.90
25440;DHT22;13365;52.208;5.488;2023-09-07T10:48:21;35.90;60.60
25440;DHT22;13365;52.208;5.488;2023-09-07T10:50:47;35.80;61.20
25440;DHT22;13365;52.208;5.488;2023-09-07T10:53:14;35.60;58.70
25440;DHT22;13365;52.208;5.488;2023-09-07T10:55:41;35.70;61.10
25440;DHT22;13365;52.208;5.488;2023-09-07T10:58:09;35.80;59.80
25440;DHT22;13365;52.208;5.488;2023-09-07T11:00:34;35.90;59.20
25440;DHT22;13365;52.208;5.488;2023-09-07T11:03:07;35.90;60.70
25440;DHT22;13365;52.208;5.488;2023-09-07T11:05:33;36.00;58.80
25440;DHT22;13365;52.208;5.488;2023-09-07T11:08:03;36.00;60.50
25440;DHT22;13365;52.208;5.488;2023-09-07T11:10:31;36.20;60.40
25440;DHT22;13365;52.208;5.488;2023-09-07T11:12:57;36.20;57.80
25440;DHT22;13365;52.208;5.488;2023-09-07T11:15:22;36.20;57.70
25440;DHT22;13365;52.208;5.488;2023-09-07T11:17:48;36.30;56.70
25440;DHT22;13365;52.208;5.488;2023-09-07T11:20:13;36.10;56.20
25440;DHT22;13365;52.208;5.488;2023-09-07T11:22:39;36.30;58.10
25440;DHT22;13365;52.208;5.488;2023-09-07T11:25:05;36.20;60.90
25440;DHT22;13365;52.208;5.488;2023-09-07T11:27:32;36.10;60.80
25440;DHT22;13365;52.208;5.488;2023-09-07T11:29:57;36.40;59.00
25440;DHT22;13365;52.208;5.488;2023-09-07T11:32:24;36.60;57.00
25440;DHT22;13365;52.208;5.488;2023-09-07T11:34:53;36.50;56.30
25440;DHT22;13365;52.208;5.488;2023-09-07T11:37:23;36.40;58.30
25440;DHT22;13365;52.208;5.488;2023-09-07T11:39:49;36.40;56.20
25440;DHT22;13365;52.208;5.488;2023-09-07T11:42:14;36.50;59.70
25440;DHT22;13365;52.208;5.488;2023-09-07T11:44:40;36.60;57.80
25440;DHT22;13365;52.208;5.488;2023-09-07T11:47:06;36.60;56.90
25440;DHT22;13365;52.208;5.488;2023-09-07T11:49:32;36.60;57.00
25440;DHT22;13365;52.208;5.488;2023-09-07T11:51:58;36.50;58.80
25440;DHT22;13365;52.208;5.488;2023-09-07T11:54:23;36.80;57.70
25440;DHT22;13365;52.208;5.488;2023-09-07T11:56:49;36.80;60.90
25440;DHT22;13365;52.208;5.488;2023-09-07T11:59:14;36.90;59.70
25440;DHT22;13365;52.208;5.488;2023-09-07T12:01:42;37.10;58.10
25440;DHT22;13365;52.208;5.488;2023-09-07T12:04:08;37.30;58.40
25440;DHT22;13365;52.208;5.488;2023-09-07T12:06:34;37.40;56.60
25440;DHT22;13365;52.208;5.488;2023-09-07T12:09:04;37.40;56.80
25440;DHT22;13365;52.208;5.488;2023-09-07T12:11:30;37.40;56.80
25440;DHT22;13365;52.208;5.488;2023-09-07T12:13:58;37.40;55.60
25440;DHT22;13365;52.208;5.488;2023-09-07T12:16:25;37.20;56.30
25440;DHT22;13365;52.208;5.488;2023-09-07T12:18:51;37.20;56.50
25440;DHT22;13365;52.208;5.488;2023-09-07T12:21:16;37.40;57.30
25440;DHT22;13365;52.208;5.488;2023-09-07T12:23:41;37.50;57.10
25440;DHT22;13365;52.208;5.488;2023-09-07T12:26:07;37.60;55.70
25440;DHT22;13365;52.208;5.488;2023-09-07T12:28:34;37.60;56.40
25440;DHT22;13365;52.208;5.488;2023-09-07T12:30:59;37.60;57.70
25440;DHT22;13365;52.208;5.488;2023-09-07T12:33:25;37.70;58.20
25440;DHT22;13365;52.208;5.488;2023-09-07T12:35:51;38.00;58.40
25440;DHT22;13365;52.208;5.488;2023-09-07T12:38:16;38.10;57.60
25440;DHT22;13365;52.208;5.488;2023-09-07T12:40:47;38.00;54.60
25440;DHT22;13365;52.208;5.488;2023-09-07T12:43:13;37.70;55.70
25440;DHT22;13365;52.208;5.488;2023-09-07T12:45:38;37.60;56.30
25440;DHT22;13365;52.208;5.488;2023-09-07T12:48:04;37.20;53.70
25440;DHT22;13365;52.208;5.488;2023-09-07T12:50:30;36.90;55.60
25440;DHT22;13365;52.208;5.488;2023-09-07T12:52:55;36.70;57.40
25440;DHT22;13365;52.208;5.488;2023-09-07T12:55:20;36.60;58.30
25440;DHT22;13365;52.208;5.488;2023-09-07T12:57:47;36.80;56.70
25440;DHT22;13365;52.208;5.488;2023-09-07T13:00:13;36.80;56.40
25440;DHT22;13365;52.208;5.488;2023-09-07T13:02:38;36.80;56.40
25440;DHT22;13365;52.208;5.488;2023-09-07T13:05:04;36.80;55.20
25440;DHT22;13365;52.208;5.488;2023-09-07T13:07:33;36.70;55.50
25440;DHT22;13365;52.208;5.488;2023-09-07T13:10:03;36.70;57.10
25440;DHT22;13365;52.208;5.488;2023-09-07T13:12:31;36.70;56.60
25440;DHT22;13365;52.208;5.488;2023-09-07T13:14:58;36.70;56.40
25440;DHT22;13365;52.208;5.488;2023-09-07T13:17:23;36.70;56.80
25440;DHT22;13365;52.208;5.488;2023-09-07T13:19:49;36.60;54.50
25440;DHT22;13365;52.208;5.488;2023-09-07T13:22:14;36.50;54.50
25440;DHT22;13365;52.208;5.488;2023-09-07T13:24:40;36.50;55.70
25440;DHT22;13365;52.208;5.488;2023-09-07T13:27:05;36.40;55.40
25440;DHT22;13365;52.208;5.488;2023-09-07T13:29:32;36.50;56.30
25440;DHT22;13365;52.208;5.488;2023-09-07T13:31:58;36.40;56.30
25440;DHT22;13365;52.208;5.488;2023-09-07T13:34:24;36.30;56.90
25440;DHT22;13365;52.208;5.488;2023-09-07T13:36:50;36.30;58.50
25440;DHT22;13365;52.208;5.488;2023-09-07T13:39:15;36.20;57.20
25440;DHT22;13365;52.208;5.488;2023-09-07T13:41:41;36.20;57.90
25440;DHT22;13365;52.208;5.488;2023-09-07T13:44:06;36.10;59.50
25440;DHT22;13365;52.208;5.488;2023-09-07T13:46:33;36.00;56.50
25440;DHT22;13365;52.208;5.488;2023-09-07T13:48:58;35.70;56.70
25440;DHT22;13365;52.208;5.488;2023-09-07T13:51:24;35.40;59.30
25440;DHT22;13365;52.208;5.488;2023-09-07T13:53:50;35.30;59.10
25440;DHT22;13365;52.208;5.488;2023-09-07T13:56:17;35.20;59.10
25440;DHT22;13365;52.208;5.488;2023-09-07T13:58:42;35.10;58.50
25440;DHT22;13365;52.208;5.488;2023-09-07T14:01:08;35.10;58.40
25440;DHT22;13365;52.208;5.488;2023-09-07T14:03:33;35.10;60.00
25440;DHT22;13365;52.208;5.488;2023-09-07T14:05:59;35.10;59.00
25440;DHT22;13365;52.208;5.488;2023-09-07T14:08:25;34.80;57.70
25440;DHT22;13365;52.208;5.488;2023-09-07T14:10:50;34.50;59.90
25440;DHT22;13365;52.208;5.488;2023-09-07T14:13:18;34.30;59.40
25440;DHT22;13365;52.208;5.488;2023-09-07T14:15:43;34.40;59.90
25440;DHT22;13365;52.208;5.488;2023-09-07T14:18:10;34.40;59.60
25440;DHT22;13365;52.208;5.488;2023-09-07T14:20:37;34.50;59.90
25440;DHT22;13365;52.208;5.488;2023-09-07T14:23:02;34.40;60.60
25440;DHT22;13365;52.208;5.488;2023-09-07T14:25:28;34.30;61.20
25440;DHT22;13365;52.208;5.488;2023-09-07T14:27:53;34.20;61.20
25440;DHT22;13365;52.208;5.488;2023-09-07T14:30:19;34.30;59.20
25440;DHT22;13365;52.208;5.488;2023-09-07T14:32:45;34.30;60.40
25440;DHT22;13365;52.208;5.488;2023-09-07T14:35:17;34.30;59.00
25440;DHT22;13365;52.208;5.488;2023-09-07T14:37:42;34.20;61.80
25440;DHT22;13365;52.208;5.488;2023-09-07T14:40:08;34.40;60.00
25440;DHT22;13365;52.208;5.488;2023-09-07T14:42:34;34.40;60.20
25440;DHT22;13365;52.208;5.488;2023-09-07T14:45:00;34.50;60.90
25440;DHT22;13365;52.208;5.488;2023-09-07T14:47:28;34.70;59.90
25440;DHT22;13365;52.208;5.488;2023-09-07T14:49:54;34.70;60.30
25440;DHT22;13365;52.208;5.488;2023-09-07T14:52:19;34.80;62.50
25440;DHT22;13365;52.208;5.488;2023-09-07T14:54:47;34.80;60.30
25440;DHT22;13365;52.208;5.488;2023-09-07T14:57:13;34.90;61.70
25440;DHT22;13365;52.208;5.488;2023-09-07T14:59:39;34.80;61.10
25440;DHT22;13365;52.208;5.488;2023-09-07T15:02:05;34.90;59.70
25440;DHT22;13365;52.208;5.488;2023-09-07T15:04:31;34.90;59.40
25440;DHT22;13365;52.208;5.488;2023-09-07T15:06:57;34.80;59.30
25440;DHT22;13365;52.208;5.488;2023-09-07T15:09:22;34.70;60.50
25440;DHT22;13365;52.208;5.488;2023-09-07T15:11:48;34.60;59.90
25440;DHT22;13365;52.208;5.488;2023-09-07T15:14:13;34.50;59.60
25440;DHT22;13365;52.208;5.488;2023-09-07T15:16:39;34.40;60.30
25440;DHT22;13365;52.208;5.488;2023-09-07T15:19:04;34.40;61.40
25440;DHT22;13365;52.208;5.488;2023-09-07T15:21:30;34.20;59.50
25440;DHT22;13365;52.208;5.488;2023-09-07T15:23:55;34.20;61.50
25440;DHT22;13365;52.208;5.488;2023-09-07T15:26:21;34.30;60.20